Burnage, United Kingdom
Current Conditions -  °F | °C
As of 4:20 PM on Wednesday 28 Jan 2015 (Local Time) from EGCC Reporting Station
Snow Showers Snow Showers  
Wind Chill: 29°   Ceiling: Unl
Heat Index: 39°   Visibility: 6mi
Dew Point: 30°   Wind: 23mph
Humidity: 70%   Direction: 290°WNW
Pressure: 29.47"   Gusts: 38mph
Location:  53.43°N, 2.2°W
Report Text: EGCC 281620Z 29020G33KT 9999 -SHRASN FEW020 FEW032CB 04/M01 Q0998 TEMPO 4000 SHRASN
Loading
Personal Weather Stations






























Interactive Weather Map New forecast layout! Learn more

10-Day Weather Forecast

Advertisements
Track Severe Weather on mobile